createdAt,value
2023-03-26T00:00:04.093Z,3.93
2023-03-26T00:02:41.294Z,4.40
2023-03-26T00:05:10.910Z,4.07
2023-03-26T00:07:38.973Z,4.60
2023-03-26T00:10:08.534Z,3.63
2023-03-26T00:12:38.039Z,4.13
2023-03-26T00:15:07.843Z,4.07
2023-03-26T00:17:36.045Z,3.53
2023-03-26T00:20:05.269Z,4.03
2023-03-26T00:22:33.425Z,3.83
2023-03-26T00:25:01.692Z,3.90
2023-03-26T00:27:29.863Z,3.57
2023-03-26T00:30:02.200Z,3.67
2023-03-26T00:32:30.729Z,3.90
2023-03-26T00:34:58.958Z,3.73
2023-03-26T00:37:27.955Z,3.77
2023-03-26T00:40:01.122Z,3.57
2023-03-26T00:42:30.060Z,4.20
2023-03-26T00:44:59.599Z,4.10
2023-03-26T00:47:29.457Z,3.87
2023-03-26T00:49:57.798Z,4.07
2023-03-26T00:52:28.670Z,3.60
2023-03-26T00:54:57.159Z,3.50
2023-03-26T00:57:35.824Z,3.57
2023-03-26T01:00:11.142Z,3.37
2023-03-26T01:02:39.545Z,3.43
2023-03-26T01:05:43.100Z,3.10
2023-03-26T01:08:22.818Z,3.80
2023-03-26T01:10:51.959Z,3.37
2023-03-26T01:13:22.081Z,3.53
2023-03-26T01:15:53.181Z,3.33
2023-03-26T01:18:26.472Z,3.23
2023-03-26T01:21:05.205Z,3.37
2023-03-26T01:23:41.710Z,3.37
2023-03-26T01:26:25.388Z,3.43
2023-03-26T01:28:58.797Z,3.50
2023-03-26T01:31:37.052Z,12.43
2023-03-26T01:34:12.492Z,11.90
2023-03-26T01:36:49.118Z,9.63
2023-03-26T01:39:25.399Z,7.30
2023-03-26T01:41:59.469Z,9.40
2023-03-26T01:44:35.693Z,13.13
2023-03-26T01:47:06.255Z,6.93
2023-03-26T01:49:34.809Z,6.23
2023-03-26T01:52:03.038Z,5.23
2023-03-26T01:54:34.218Z,5.93
2023-03-26T01:57:13.281Z,4.17
2023-03-26T01:59:55.833Z,3.90
2023-03-26T02:02:28.992Z,3.70
2023-03-26T02:05:03.486Z,3.27
2023-03-26T02:07:39.028Z,3.40
2023-03-26T02:10:13.663Z,3.63
2023-03-26T02:12:44.953Z,3.10
2023-03-26T02:15:14.178Z,3.13
2023-03-26T02:17:42.414Z,2.93
2023-03-26T02:20:14.360Z,2.90
2023-03-26T02:22:45.860Z,2.90
2023-03-26T02:25:18.033Z,3.00
2023-03-26T02:27:50.189Z,3.60
2023-03-26T02:30:21.035Z,3.20
2023-03-26T02:32:54.190Z,3.00
2023-03-26T02:35:24.156Z,3.37
2023-03-26T02:37:57.919Z,2.90
2023-03-26T02:40:26.310Z,2.87
2023-03-26T02:42:56.106Z,3.57
2023-03-26T02:45:24.941Z,3.20
2023-03-26T02:48:16.301Z,3.60
2023-03-26T02:50:50.203Z,3.40
2023-03-26T02:53:37.683Z,3.17
2023-03-26T02:56:22.655Z,3.30
2023-03-26T02:59:05.209Z,3.40
2023-03-26T03:01:35.261Z,3.47
2023-03-26T03:04:05.315Z,3.90
2023-03-26T03:06:38.420Z,3.90
2023-03-26T03:09:08.666Z,3.50
2023-03-26T03:11:37.179Z,3.50
2023-03-26T03:14:08.198Z,4.00
2023-03-26T03:16:36.891Z,4.03
2023-03-26T03:19:10.780Z,3.83
2023-03-26T03:21:41.578Z,3.70
2023-03-26T03:24:13.957Z,4.07
2023-03-26T03:26:47.774Z,4.27
2023-03-26T03:29:56.040Z,3.90
2023-03-26T03:32:42.796Z,4.30
2023-03-26T03:35:11.723Z,4.57
2023-03-26T03:37:41.785Z,3.60
2023-03-26T03:40:11.915Z,4.20
2023-03-26T03:42:40.774Z,4.20
2023-03-26T03:45:12.882Z,3.87
2023-03-26T03:50:43.516Z,4.27
2023-03-26T03:53:26.060Z,3.47
2023-03-26T03:55:56.468Z,3.80
2023-03-26T03:58:31.204Z,3.73
2023-03-26T04:01:08.431Z,3.77
2023-03-26T04:03:54.441Z,3.80
2023-03-26T04:06:26.189Z,3.90
2023-03-26T04:08:55.372Z,3.20
2023-03-26T04:11:24.259Z,3.47
2023-03-26T04:14:11.386Z,3.53
2023-03-26T04:17:09.939Z,3.77
2023-03-26T04:19:39.810Z,3.20
2023-03-26T04:22:12.037Z,3.23
2023-03-26T04:24:54.446Z,3.20
2023-03-26T04:27:35.501Z,2.93
2023-03-26T04:30:36.248Z,2.97
2023-03-26T04:33:17.548Z,2.97
2023-03-26T04:35:48.364Z,3.20
2023-03-26T04:38:18.599Z,3.10
2023-03-26T04:40:49.906Z,2.53
2023-03-26T04:43:47.502Z,3.33
2023-03-26T04:46:35.385Z,2.90
2023-03-26T04:49:24.778Z,3.50
2023-03-26T04:51:52.817Z,3.23
2023-03-26T04:54:45.588Z,3.60
2023-03-26T04:57:21.795Z,3.33
2023-03-26T04:59:54.540Z,3.70
2023-03-26T05:02:23.176Z,3.07
2023-03-26T05:04:57.281Z,3.40
2023-03-26T05:07:29.181Z,3.00
2023-03-26T05:09:59.048Z,3.63
2023-03-26T05:12:39.318Z,3.17
2023-03-26T05:15:15.854Z,3.20
2023-03-26T05:18:00.780Z,3.43
2023-03-26T05:20:49.596Z,3.80
2023-03-26T05:23:18.376Z,3.73
2023-03-26T05:25:53.177Z,4.90
2023-03-26T05:28:24.800Z,4.13
2023-03-26T05:31:02.822Z,4.43
2023-03-26T05:33:36.158Z,4.23
2023-03-26T05:36:15.483Z,4.73
2023-03-26T05:38:52.431Z,4.70
2023-03-26T05:41:56.350Z,4.10
2023-03-26T05:44:31.463Z,4.50
2023-03-26T05:47:03.964Z,4.43
2023-03-26T05:49:32.325Z,3.63
2023-03-26T05:52:01.894Z,3.67
2023-03-26T05:54:56.078Z,4.03
2023-03-26T05:57:43.069Z,4.73
2023-03-26T06:00:40.689Z,4.77
2023-03-26T06:03:12.977Z,4.20
2023-03-26T06:05:50.252Z,3.50
2023-03-26T06:08:23.603Z,3.70
2023-03-26T06:10:59.839Z,3.70
2023-03-26T06:13:29.231Z,3.60
2023-03-26T06:15:59.147Z,3.83
2023-03-26T06:18:36.581Z,3.80
2023-03-26T06:21:27.898Z,4.23
2023-03-26T06:24:02.486Z,3.93
2023-03-26T06:26:49.179Z,3.67
2023-03-26T06:29:25.640Z,4.00
2023-03-26T06:32:09.168Z,4.00
2023-03-26T06:34:52.100Z,3.50
2023-03-26T06:37:20.595Z,3.77
2023-03-26T06:39:51.663Z,3.57
2023-03-26T06:42:21.864Z,3.77
2023-03-26T06:45:29.372Z,4.13
2023-03-26T06:48:16.152Z,3.57
2023-03-26T06:50:58.203Z,5.20
2023-03-26T06:53:52.040Z,4.00
2023-03-26T06:56:41.880Z,3.50
2023-03-26T06:59:35.893Z,3.13
2023-03-26T07:02:22.399Z,3.07
2023-03-26T07:05:09.561Z,2.67
2023-03-26T07:07:56.024Z,2.47
2023-03-26T07:10:42.833Z,1.90
2023-03-26T07:13:31.225Z,1.80
2023-03-26T07:16:22.512Z,2.00
2023-03-26T07:18:56.821Z,2.60
2023-03-26T07:21:30.596Z,2.90
2023-03-26T07:23:59.600Z,3.23
2023-03-26T07:26:57.727Z,3.33
2023-03-26T07:29:38.799Z,3.30
2023-03-26T07:32:40.403Z,3.60
2023-03-26T07:35:23.717Z,3.15
2023-03-26T07:38:28.882Z,2.70
2023-03-26T07:41:17.131Z,3.17
2023-03-26T07:44:18.840Z,3.07
2023-03-26T07:46:53.462Z,2.93
2023-03-26T07:49:45.260Z,3.77
2023-03-26T07:52:16.549Z,3.10
2023-03-26T07:55:09.167Z,3.03
2023-03-26T07:58:05.765Z,3.30
2023-03-26T08:00:58.294Z,3.23
2023-03-26T08:03:43.203Z,2.57
2023-03-26T08:06:37.612Z,2.93
2023-03-26T08:09:32.003Z,3.30
2023-03-26T08:12:25.710Z,3.30
2023-03-26T08:15:00.247Z,3.60
2023-03-26T08:17:38.139Z,3.20
2023-03-26T08:20:21.470Z,3.37
2023-03-26T08:22:57.157Z,2.93
2023-03-26T08:25:29.771Z,2.83
2023-03-26T08:28:24.868Z,3.03
2023-03-26T08:30:57.879Z,3.30
2023-03-26T08:33:28.396Z,3.00
2023-03-26T08:35:58.132Z,3.40
2023-03-26T08:38:26.433Z,2.93
2023-03-26T08:41:37.143Z,3.03
2023-03-26T08:44:48.945Z,3.30
2023-03-26T08:48:03.865Z,3.53
2023-03-26T08:51:05.408Z,3.20
2023-03-26T08:54:12.056Z,3.50
2023-03-26T08:56:51.535Z,3.47
2023-03-26T08:59:51.681Z,3.33
2023-03-26T09:02:46.870Z,3.63
2023-03-26T09:06:01.338Z,3.37
2023-03-26T09:09:07.527Z,4.00
2023-03-26T09:12:24.376Z,3.67
2023-03-26T09:15:37.716Z,3.83
2023-03-26T09:18:50.830Z,3.40
2023-03-26T09:21:44.577Z,3.97
2023-03-26T09:25:00.710Z,3.77
2023-03-26T09:27:39.198Z,3.87
2023-03-26T09:30:38.677Z,3.93
2023-03-26T09:33:42.813Z,3.40
2023-03-26T09:36:23.874Z,3.47
2023-03-26T09:38:55.992Z,5.07
2023-03-26T09:41:43.575Z,12.73
2023-03-26T09:44:32.367Z,3.30
2023-03-26T09:47:28.762Z,2.93
2023-03-26T09:50:13.953Z,2.57
2023-03-26T09:53:07.455Z,3.23
2023-03-26T09:55:52.270Z,3.30
2023-03-26T09:58:56.818Z,2.73
2023-03-26T10:01:34.982Z,3.20
2023-03-26T10:04:42.185Z,3.20
2023-03-26T10:07:30.234Z,3.57
2023-03-26T10:10:04.321Z,3.53
2023-03-26T10:12:38.301Z,3.67
2023-03-26T10:15:32.497Z,3.37
2023-03-26T10:18:28.241Z,3.93
2023-03-26T10:21:07.160Z,3.90
2023-03-26T10:23:57.061Z,3.63
2023-03-26T10:26:39.391Z,3.40
2023-03-26T10:29:21.746Z,3.30
2023-03-26T10:31:55.817Z,2.90
2023-03-26T10:34:43.846Z,2.72
2023-03-26T10:37:20.557Z,2.47
2023-03-26T10:40:21.322Z,2.58
2023-03-26T10:43:16.117Z,2.70
2023-03-26T10:46:11.353Z,2.33
2023-03-26T10:48:55.410Z,2.30
2023-03-26T10:51:46.979Z,2.50
2023-03-26T10:54:27.170Z,2.25
2023-03-26T10:56:56.982Z,2.33
2023-03-26T10:59:28.609Z,2.60
2023-03-26T11:02:29.446Z,2.50
2023-03-26T11:05:17.792Z,2.20
2023-03-26T11:07:53.985Z,2.20
2023-03-26T11:10:33.068Z,2.45
2023-03-26T11:13:07.224Z,2.38
2023-03-26T11:15:41.725Z,2.47
2023-03-26T11:18:18.121Z,2.50
2023-03-26T11:20:52.437Z,2.22
2023-03-26T11:23:34.541Z,2.00
2023-03-26T11:26:17.228Z,2.38
2023-03-26T11:29:32.423Z,2.67
2023-03-26T11:32:07.284Z,2.67
2023-03-26T11:34:39.943Z,2.38
2023-03-26T11:37:15.588Z,2.40
2023-03-26T11:39:51.014Z,2.50
2023-03-26T11:42:24.125Z,2.50
2023-03-26T11:44:56.934Z,2.58
2023-03-26T11:47:32.283Z,2.17
2023-03-26T11:50:03.512Z,2.70
2023-03-26T11:52:31.737Z,2.25
2023-03-26T11:55:01.361Z,2.70
2023-03-26T11:57:34.824Z,2.65
2023-03-26T12:00:15.857Z,2.63
2023-03-26T12:02:44.875Z,2.35
2023-03-26T12:05:19.371Z,2.65
2023-03-26T12:07:56.248Z,2.90
2023-03-26T12:10:32.504Z,2.70
2023-03-26T12:13:03.539Z,2.50
2023-03-26T12:15:32.714Z,2.67
2023-03-26T12:18:21.078Z,2.60
2023-03-26T12:20:50.779Z,2.53
2023-03-26T12:23:39.571Z,2.72
2023-03-26T12:26:17.615Z,3.15
2023-03-26T12:28:47.862Z,2.90
2023-03-26T12:31:18.386Z,2.78
2023-03-26T12:33:52.956Z,2.78
2023-03-26T12:36:26.512Z,2.10
2023-03-26T12:39:16.365Z,2.70
2023-03-26T12:44:44.760Z,2.75
2023-03-26T12:44:55.789Z,3.15
2023-03-26T12:47:57.562Z,3.20
2023-03-26T12:50:18.335Z,2.40
2023-03-26T12:53:18.008Z,2.45
2023-03-26T12:55:57.302Z,2.30
2023-03-26T12:59:04.214Z,2.63
2023-03-26T13:01:46.008Z,2.35
2023-03-26T13:05:02.380Z,2.58
2023-03-26T13:07:53.412Z,2.55
2023-03-26T13:10:38.568Z,2.83
2023-03-26T13:13:19.767Z,2.60
2023-03-26T13:15:53.175Z,2.58
2023-03-26T13:18:34.950Z,2.50
2023-03-26T13:21:10.709Z,2.67
2023-03-26T13:23:47.849Z,2.55
2023-03-26T13:26:30.511Z,2.65
2023-03-26T13:29:08.427Z,2.60
2023-03-26T13:31:43.498Z,2.33
2023-03-26T13:34:23.314Z,2.60
2023-03-26T13:37:07.567Z,2.42
2023-03-26T13:39:45.832Z,2.53
2023-03-26T13:42:33.731Z,2.60
2023-03-26T13:45:11.658Z,2.63
2023-03-26T13:47:48.084Z,2.33
2023-03-26T13:50:21.938Z,2.58
2023-03-26T13:52:55.448Z,2.47
2023-03-26T13:55:30.187Z,2.63
2023-03-26T13:58:05.446Z,2.50
2023-03-26T14:00:49.309Z,2.78
2023-03-26T14:03:26.143Z,2.40
2023-03-26T14:05:58.578Z,2.58
2023-03-26T14:08:33.025Z,2.88
2023-03-26T14:11:11.064Z,3.03
2023-03-26T14:13:47.502Z,2.72
2023-03-26T14:16:19.434Z,2.20
2023-03-26T14:18:59.363Z,2.35
2023-03-26T14:21:58.532Z,2.70
2023-03-26T14:25:00.800Z,2.60
2023-03-26T14:27:44.693Z,7.03
2023-03-26T14:30:43.436Z,3.40
2023-03-26T14:33:35.152Z,2.70
2023-03-26T14:36:17.592Z,3.73
2023-03-26T14:39:19.188Z,2.85
2023-03-26T14:41:53.402Z,2.90
2023-03-26T14:44:50.856Z,2.70
2023-03-26T14:47:21.711Z,2.97
2023-03-26T14:50:36.001Z,3.00
2023-03-26T14:53:15.331Z,2.43
2023-03-26T14:56:34.739Z,2.60
2023-03-26T14:59:41.989Z,2.60
2023-03-26T15:02:56.559Z,2.63
2023-03-26T15:05:58.246Z,8.87
2023-03-26T15:09:21.491Z,3.20
2023-03-26T15:12:12.780Z,2.57
2023-03-26T15:15:31.288Z,2.50
2023-03-26T15:18:42.101Z,2.73
2023-03-26T15:22:08.977Z,2.33
2023-03-26T15:25:04.277Z,2.23
2023-03-26T15:27:59.181Z,2.80
2023-03-26T15:31:10.176Z,2.37
2023-03-26T15:34:08.202Z,2.40
2023-03-26T15:37:02.586Z,2.60
2023-03-26T15:39:59.392Z,2.87
2023-03-26T15:42:38.278Z,2.83
2023-03-26T15:45:23.541Z,3.07
2023-03-26T15:48:10.954Z,2.97
2023-03-26T15:50:54.054Z,2.97
2023-03-26T15:53:38.893Z,3.20
2023-03-26T15:56:33.016Z,3.07
2023-03-26T15:59:12.414Z,3.70
2023-03-26T16:02:04.932Z,4.90
2023-03-26T16:04:51.745Z,7.57
2023-03-26T16:07:59.084Z,4.67
2023-03-26T16:10:37.417Z,4.40
2023-03-26T16:13:34.083Z,4.60
2023-03-26T16:16:23.890Z,5.07
2023-03-26T16:18:58.764Z,4.40
2023-03-26T16:21:56.506Z,6.43
2023-03-26T16:24:32.583Z,2.00
2023-03-26T16:27:08.187Z,2.90
2023-03-26T16:30:17.576Z,2.60
2023-03-26T16:32:56.479Z,2.80
2023-03-26T16:35:42.190Z,2.23
2023-03-26T16:38:21.924Z,3.73
2023-03-26T16:41:03.625Z,4.37
2023-03-26T16:43:48.363Z,3.40
2023-03-26T16:46:30.988Z,2.33
2023-03-26T16:49:07.814Z,2.10
2023-03-26T16:52:03.994Z,2.13
2023-03-26T16:54:45.988Z,2.53
2023-03-26T16:57:28.157Z,2.57
2023-03-26T17:00:24.538Z,2.30
2023-03-26T17:03:03.996Z,2.80
2023-03-26T17:05:39.190Z,2.70
2023-03-26T17:08:17.871Z,2.77
2023-03-26T17:11:20.965Z,2.60
2023-03-26T17:14:03.860Z,2.70
2023-03-26T17:16:37.376Z,2.07
2023-03-26T17:19:20.728Z,2.23
2023-03-26T17:22:05.841Z,2.13
2023-03-26T17:24:47.050Z,2.90
2023-03-26T17:27:50.734Z,2.63
2023-03-26T17:30:51.174Z,3.70
2023-03-26T17:33:29.628Z,3.43
2023-03-26T17:36:24.906Z,3.40
2023-03-26T17:39:03.269Z,3.87
2023-03-26T17:42:22.144Z,3.37
2023-03-26T17:44:54.063Z,4.07
2023-03-26T17:47:34.151Z,7.07
2023-03-26T17:50:09.323Z,3.37
2023-03-26T17:53:04.168Z,2.90
2023-03-26T17:55:37.316Z,3.43
2023-03-26T17:58:22.964Z,2.57
2023-03-26T18:00:58.618Z,3.87
2023-03-26T18:03:34.850Z,3.07
2023-03-26T18:06:11.821Z,2.90
2023-03-26T18:08:58.680Z,2.80
2023-03-26T18:11:52.737Z,2.90
2023-03-26T18:14:58.455Z,2.73
2023-03-26T18:17:43.635Z,2.70
2023-03-26T18:20:23.846Z,2.97
2023-03-26T18:22:55.224Z,3.20
2023-03-26T18:25:35.747Z,3.30
2023-03-26T18:28:07.930Z,3.27
2023-03-26T18:30:51.816Z,3.17
2023-03-26T18:33:22.523Z,3.07
2023-03-26T18:35:56.556Z,3.57
2023-03-26T18:38:35.010Z,3.33
2023-03-26T18:41:13.150Z,2.93
2023-03-26T18:43:44.754Z,2.87
2023-03-26T18:46:17.590Z,3.70
2023-03-26T18:48:49.420Z,3.53
2023-03-26T18:51:23.787Z,4.97
2023-03-26T18:53:58.047Z,4.53
2023-03-26T18:56:39.090Z,4.47
2023-03-26T18:59:21.659Z,4.20
2023-03-26T19:01:52.437Z,4.10
2023-03-26T19:04:21.970Z,3.43
2023-03-26T19:06:55.427Z,3.40
2023-03-26T19:09:32.192Z,3.30
2023-03-26T19:12:12.260Z,2.90
2023-03-26T19:15:04.155Z,3.07
2023-03-26T19:17:41.383Z,2.10
2023-03-26T19:20:17.949Z,2.13
2023-03-26T19:22:49.503Z,1.60
2023-03-26T19:25:24.155Z,1.37
2023-03-26T19:27:58.228Z,1.30
2023-03-26T19:30:34.473Z,1.30
2023-03-26T19:33:12.957Z,1.27
2023-03-26T19:35:48.719Z,1.00
2023-03-26T19:38:24.742Z,1.03
2023-03-26T19:40:57.089Z,0.83
2023-03-26T19:43:41.198Z,0.90
2023-03-26T19:46:17.198Z,0.93
2023-03-26T19:48:50.569Z,0.87
2023-03-26T19:51:22.685Z,0.70
2023-03-26T19:53:59.030Z,0.87
2023-03-26T19:56:29.329Z,2.27
2023-03-26T19:59:06.563Z,1.30
2023-03-26T20:01:40.050Z,1.30
2023-03-26T20:04:16.664Z,0.80
2023-03-26T20:06:53.396Z,1.00
2023-03-26T20:09:23.696Z,0.90
2023-03-26T20:11:54.923Z,1.00
2023-03-26T20:14:26.834Z,0.80
2023-03-26T20:16:57.180Z,0.90
2023-03-26T20:19:26.933Z,0.90
2023-03-26T20:21:59.907Z,0.80
2023-03-26T20:24:30.222Z,0.90
2023-03-26T20:26:59.485Z,0.60
2023-03-26T20:29:36.707Z,0.73
2023-03-26T20:32:10.166Z,1.03
2023-03-26T20:34:41.919Z,1.00
2023-03-26T20:37:15.887Z,0.90
2023-03-26T20:39:48.517Z,0.90
2023-03-26T20:42:17.754Z,0.90
2023-03-26T20:44:48.417Z,0.80
2023-03-26T20:47:17.787Z,0.70
2023-03-26T20:49:47.146Z,0.83
2023-03-26T20:52:16.291Z,1.00
2023-03-26T20:54:45.694Z,1.60
2023-03-26T20:57:15.072Z,1.30
2023-03-26T20:59:43.913Z,1.40
2023-03-26T21:02:14.282Z,1.37
2023-03-26T21:04:42.660Z,1.00
2023-03-26T21:07:17.708Z,0.90
2023-03-26T21:09:49.543Z,1.17
2023-03-26T21:12:26.566Z,0.97
2023-03-26T21:14:55.736Z,1.00
2023-03-26T21:17:26.336Z,0.70
2023-03-26T21:19:56.057Z,0.60
2023-03-26T21:22:31.905Z,1.00
2023-03-26T21:25:06.670Z,1.07
2023-03-26T21:27:43.851Z,1.30
2023-03-26T21:30:14.368Z,1.00
2023-03-26T21:32:46.352Z,1.10
2023-03-26T21:35:16.348Z,1.53
2023-03-26T21:37:48.683Z,1.40
2023-03-26T21:40:18.673Z,1.30
2023-03-26T21:42:49.070Z,1.10
2023-03-26T21:45:18.550Z,1.03
2023-03-26T21:47:49.296Z,1.00
2023-03-26T21:50:20.481Z,1.07
2023-03-26T21:52:51.112Z,1.03
2023-03-26T21:55:21.524Z,0.97
2023-03-26T21:58:12.283Z,1.40
2023-03-26T22:00:46.701Z,1.20
2023-03-26T22:03:22.444Z,1.23
2023-03-26T22:05:59.348Z,1.10
2023-03-26T22:08:31.765Z,1.07
2023-03-26T22:11:00.108Z,0.90
2023-03-26T22:13:28.376Z,1.00
2023-03-26T22:15:56.945Z,1.10
2023-03-26T22:18:30.277Z,1.20
2023-03-26T22:20:59.191Z,1.20
2023-03-26T22:23:27.753Z,1.40
2023-03-26T22:25:56.128Z,1.10
2023-03-26T22:28:24.448Z,1.07
2023-03-26T22:30:52.958Z,1.20
2023-03-26T22:33:21.180Z,1.30
2023-03-26T22:35:50.783Z,1.20
2023-03-26T22:38:19.240Z,1.37
2023-03-26T22:40:56.143Z,1.70
2023-03-26T22:43:24.485Z,0.90
2023-03-26T22:45:53.782Z,0.93
2023-03-26T22:48:22.423Z,0.80
2023-03-26T22:51:00.348Z,0.70
2023-03-26T22:53:29.124Z,1.00
2023-03-26T22:55:57.763Z,0.90
2023-03-26T22:58:27.213Z,0.77
2023-03-26T23:01:04.281Z,0.90
2023-03-26T23:03:35.264Z,0.90
2023-03-26T23:06:08.087Z,0.70
2023-03-26T23:08:38.271Z,0.80
2023-03-26T23:11:10.056Z,0.67
2023-03-26T23:13:38.351Z,0.90
2023-03-26T23:16:08.175Z,0.80
2023-03-26T23:18:36.797Z,0.53
2023-03-26T23:21:12.049Z,0.93
2023-03-26T23:23:40.541Z,0.97
2023-03-26T23:26:08.955Z,0.60
2023-03-26T23:28:38.740Z,0.80
2023-03-26T23:31:09.507Z,0.80
2023-03-26T23:33:39.343Z,0.90
2023-03-26T23:36:09.878Z,1.17
2023-03-26T23:38:43.211Z,1.17
2023-03-26T23:41:15.514Z,1.10
2023-03-26T23:43:54.521Z,1.20
2023-03-26T23:46:25.369Z,0.90
2023-03-26T23:48:55.092Z,1.20
2023-03-26T23:51:24.972Z,1.00
2023-03-26T23:53:53.862Z,1.27
2023-03-26T23:56:22.611Z,1.30
2023-03-26T23:58:50.965Z,1.00
